createdAt,value
2018-09-15T00:00:24.271Z,9.97
2018-09-15T00:02:53.353Z,10.73
2018-09-15T00:05:21.495Z,10.77
2018-09-15T00:07:50.209Z,9.77
2018-09-15T00:10:18.417Z,11.23
2018-09-15T00:12:46.555Z,13.83
2018-09-15T00:15:14.711Z,11.90
2018-09-15T00:17:44.959Z,10.13
2018-09-15T00:20:13.111Z,12.47
2018-09-15T00:22:41.256Z,15.20
2018-09-15T00:25:09.440Z,13.20
2018-09-15T00:27:37.584Z,13.40
2018-09-15T00:30:05.763Z,15.47
2018-09-15T00:32:33.903Z,15.10
2018-09-15T00:35:02.058Z,14.83
2018-09-15T00:37:30.200Z,15.40
2018-09-15T00:39:58.344Z,17.10
2018-09-15T00:42:26.475Z,17.03
2018-09-15T00:44:54.709Z,14.90
2018-09-15T00:47:22.827Z,14.43
2018-09-15T00:49:50.964Z,14.13
2018-09-15T00:52:19.111Z,14.70
2018-09-15T00:54:47.252Z,13.60
2018-09-15T00:57:15.411Z,14.33
2018-09-15T00:59:43.548Z,13.00
2018-09-15T01:02:11.694Z,13.77
2018-09-15T01:04:39.836Z,12.83
2018-09-15T01:07:08.166Z,13.27
2018-09-15T01:09:36.291Z,14.07
2018-09-15T01:12:04.436Z,13.63
2018-09-15T01:14:32.714Z,12.43
2018-09-15T01:17:00.754Z,13.23
2018-09-15T01:19:28.886Z,12.93
2018-09-15T01:21:57.123Z,11.83
2018-09-15T01:24:25.279Z,13.23
2018-09-15T01:26:53.427Z,12.00
2018-09-15T01:29:21.608Z,12.03
2018-09-15T01:31:49.978Z,10.97
2018-09-15T01:34:18.101Z,10.53
2018-09-15T01:36:46.238Z,9.10
2018-09-15T01:39:14.370Z,10.03
2018-09-15T01:41:42.494Z,9.93
2018-09-15T01:44:10.622Z,10.87
2018-09-15T01:46:38.755Z,11.10
2018-09-15T01:49:06.884Z,11.13
2018-09-15T01:51:35.005Z,10.77
2018-09-15T01:54:03.144Z,11.53
2018-09-15T01:56:31.291Z,12.20
2018-09-15T01:58:59.430Z,11.60
2018-09-15T02:01:27.568Z,12.80
2018-09-15T02:03:55.760Z,15.23
2018-09-15T02:06:23.902Z,14.53
2018-09-15T02:08:52.053Z,14.43
2018-09-15T02:11:20.207Z,14.20
2018-09-15T02:13:48.331Z,15.03
2018-09-15T02:16:16.466Z,14.17
2018-09-15T02:18:44.594Z,16.30
2018-09-15T02:21:12.735Z,15.23
2018-09-15T02:23:40.872Z,15.17
2018-09-15T02:26:09.038Z,14.93
2018-09-15T02:28:37.179Z,16.57
2018-09-15T02:31:05.343Z,14.70
2018-09-15T02:33:39.065Z,14.87
2018-09-15T02:36:07.216Z,13.80
2018-09-15T02:38:35.355Z,13.73
2018-09-15T02:41:03.503Z,13.90
2018-09-15T02:43:31.627Z,13.37
2018-09-15T02:45:59.764Z,13.33
2018-09-15T02:48:27.904Z,15.00
2018-09-15T02:50:56.059Z,12.33
2018-09-15T02:53:24.203Z,12.73
2018-09-15T02:55:52.340Z,11.57
2018-09-15T02:58:20.496Z,12.17
2018-09-15T03:00:48.622Z,12.00
2018-09-15T03:03:16.761Z,11.67
2018-09-15T03:05:44.899Z,11.53
2018-09-15T03:08:13.030Z,11.27
2018-09-15T03:10:41.194Z,11.43
2018-09-15T03:13:09.294Z,12.23
2018-09-15T03:15:37.422Z,10.30
2018-09-15T03:18:05.665Z,10.83
2018-09-15T03:20:33.781Z,12.03
2018-09-15T03:23:01.919Z,9.57
2018-09-15T03:25:30.047Z,11.20
2018-09-15T03:27:58.193Z,9.63
2018-09-15T03:30:26.339Z,11.33
2018-09-15T03:32:54.483Z,9.80
2018-09-15T03:35:22.627Z,11.20
2018-09-15T03:37:50.766Z,8.13
2018-09-15T03:40:18.895Z,8.83
2018-09-15T03:42:47.024Z,8.27
2018-09-15T03:45:15.150Z,10.87
2018-09-15T03:47:43.282Z,12.03
2018-09-15T03:50:11.407Z,7.37
2018-09-15T03:52:39.550Z,9.17
2018-09-15T03:55:07.675Z,8.20
2018-09-15T03:57:35.862Z,7.03
2018-09-15T04:00:04.081Z,6.80
2018-09-15T04:02:32.150Z,8.77
2018-09-15T04:05:00.522Z,6.47
2018-09-15T04:07:28.664Z,6.13
2018-09-15T04:09:56.785Z,7.37
2018-09-15T04:12:24.940Z,7.50
2018-09-15T04:14:53.083Z,8.43
2018-09-15T04:17:21.214Z,7.90
2018-09-15T04:19:49.370Z,8.10
2018-09-15T04:22:17.503Z,7.30
2018-09-15T04:24:45.997Z,11.10
2018-09-15T04:27:14.226Z,7.83
2018-09-15T04:29:42.349Z,8.23
2018-09-15T04:32:10.473Z,7.87
2018-09-15T04:34:38.596Z,7.17
2018-09-15T04:37:06.736Z,9.77
2018-09-15T04:39:34.856Z,8.03
2018-09-15T04:42:03.020Z,6.93
2018-09-15T04:44:31.135Z,7.63
2018-09-15T04:46:59.263Z,9.27
2018-09-15T04:49:27.390Z,7.67
2018-09-15T04:51:55.524Z,12.10
2018-09-15T04:54:23.658Z,8.50
2018-09-15T04:56:51.791Z,8.77
2018-09-15T04:59:19.923Z,7.97
2018-09-15T05:01:48.075Z,8.60
2018-09-15T05:04:16.195Z,9.73
2018-09-15T05:06:44.391Z,8.67
2018-09-15T05:09:13.161Z,9.83
2018-09-15T05:11:41.551Z,10.43
2018-09-15T05:14:09.720Z,8.70
2018-09-15T05:16:37.916Z,9.73
2018-09-15T05:19:06.044Z,10.43
2018-09-15T05:21:34.212Z,11.00
2018-09-15T05:24:02.347Z,13.77
2018-09-15T05:26:30.464Z,13.20
2018-09-15T05:28:58.610Z,10.07
2018-09-15T05:31:26.781Z,10.40
2018-09-15T05:33:54.893Z,11.67
2018-09-15T05:36:23.027Z,10.90
2018-09-15T05:38:51.485Z,10.97
2018-09-15T05:41:19.851Z,11.80
2018-09-15T05:43:48.010Z,12.37
2018-09-15T05:46:16.178Z,10.70
2018-09-15T05:48:44.363Z,10.90
2018-09-15T05:51:12.940Z,11.93
2018-09-15T05:53:42.095Z,11.57
2018-09-15T05:56:10.332Z,11.63
2018-09-15T05:58:38.499Z,11.43
2018-09-15T06:01:07.251Z,12.33
2018-09-15T06:03:35.410Z,11.97
2018-09-15T06:06:03.789Z,12.17
2018-09-15T06:08:31.925Z,12.57
2018-09-15T06:11:00.285Z,12.33
2018-09-15T06:13:28.547Z,11.40
2018-09-15T06:15:56.675Z,12.87
2018-09-15T06:18:24.816Z,13.27
2018-09-15T06:20:52.940Z,14.03
2018-09-15T06:23:21.139Z,12.83
2018-09-15T06:25:49.266Z,16.57
2018-09-15T06:28:17.414Z,12.53
2018-09-15T06:30:46.001Z,16.13
2018-09-15T06:33:14.991Z,11.97
2018-09-15T06:35:43.463Z,13.07
2018-09-15T06:38:11.592Z,12.43
2018-09-15T06:40:39.730Z,14.77
2018-09-15T06:43:07.942Z,12.40
2018-09-15T06:45:36.122Z,12.53
2018-09-15T06:48:04.239Z,15.83
2018-09-15T06:50:32.367Z,12.47
2018-09-15T06:53:00.511Z,12.03
2018-09-15T06:55:28.629Z,14.13
2018-09-15T06:57:56.747Z,11.83
2018-09-15T07:00:24.870Z,12.37
2018-09-15T07:02:53.006Z,13.80
2018-09-15T07:05:21.140Z,12.60
2018-09-15T07:07:49.284Z,12.57
2018-09-15T07:10:17.467Z,13.33
2018-09-15T07:12:45.594Z,15.50
2018-09-15T07:15:13.751Z,11.47
2018-09-15T07:17:41.885Z,13.20
2018-09-15T07:20:10.085Z,12.43
2018-09-15T07:22:38.199Z,12.47
2018-09-15T07:25:06.366Z,13.40
2018-09-15T07:27:34.478Z,11.50
2018-09-15T07:30:02.627Z,15.17
2018-09-15T07:32:30.760Z,12.77
2018-09-15T07:34:58.919Z,13.70
2018-09-15T07:37:27.131Z,13.80
2018-09-15T07:39:55.215Z,11.17
2018-09-15T07:42:23.524Z,10.43
2018-09-15T07:44:51.713Z,11.27
2018-09-15T07:47:19.782Z,10.37
2018-09-15T07:49:47.914Z,13.03
2018-09-15T07:52:16.038Z,10.40
2018-09-15T07:54:44.187Z,10.40
2018-09-15T07:57:12.311Z,12.27
2018-09-15T07:59:40.454Z,12.80
2018-09-15T08:02:13.983Z,10.07
2018-09-15T08:04:42.090Z,9.47
2018-09-15T08:07:11.046Z,11.93
2018-09-15T08:09:39.191Z,10.80
2018-09-15T08:12:07.463Z,12.50
2018-09-15T08:14:35.604Z,10.57
2018-09-15T08:17:03.748Z,11.13
2018-09-15T08:19:31.938Z,10.53
2018-09-15T08:22:00.154Z,10.30
2018-09-15T08:24:28.286Z,10.60
2018-09-15T08:26:56.399Z,11.93
2018-09-15T08:29:24.544Z,9.83
2018-09-15T08:31:52.736Z,7.30
2018-09-15T08:34:20.833Z,10.03
2018-09-15T08:36:48.974Z,9.13
2018-09-15T08:39:17.111Z,11.23
2018-09-15T08:41:45.264Z,7.97
2018-09-15T08:44:13.395Z,8.60
2018-09-15T08:46:41.541Z,11.73
2018-09-15T08:49:09.916Z,10.33
2018-09-15T08:51:38.047Z,10.63
2018-09-15T08:54:06.175Z,9.17
2018-09-15T08:56:34.295Z,7.80
2018-09-15T08:59:02.451Z,7.20
2018-09-15T09:01:30.641Z,10.17
2018-09-15T09:03:58.795Z,9.40
2018-09-15T09:06:26.922Z,9.40
2018-09-15T09:08:55.055Z,7.57
2018-09-15T09:11:23.176Z,7.67
2018-09-15T09:13:51.318Z,9.37
2018-09-15T09:16:19.488Z,7.47
2018-09-15T09:18:47.643Z,6.23
2018-09-15T09:21:15.777Z,6.13
2018-09-15T09:23:43.900Z,8.10
2018-09-15T09:26:12.204Z,6.97
2018-09-15T09:28:40.323Z,9.53
2018-09-15T09:31:08.541Z,6.87
2018-09-15T09:33:36.704Z,8.07
2018-09-15T09:36:04.872Z,9.67
2018-09-15T09:38:32.991Z,8.73
2018-09-15T09:41:01.119Z,10.07
2018-09-15T09:43:29.259Z,10.17
2018-09-15T09:45:57.412Z,9.50
2018-09-15T09:48:25.532Z,10.63
2018-09-15T09:50:53.670Z,10.30
2018-09-15T09:53:21.800Z,9.53
2018-09-15T09:55:49.990Z,10.83
2018-09-15T09:58:18.070Z,10.17
2018-09-15T10:00:51.717Z,13.17
2018-09-15T10:03:19.858Z,8.80
2018-09-15T10:05:48.036Z,7.97
2018-09-15T10:08:16.167Z,8.93
2018-09-15T10:10:44.398Z,10.57
2018-09-15T10:13:12.826Z,9.00
2018-09-15T10:15:41.006Z,9.73
2018-09-15T10:18:09.127Z,8.77
2018-09-15T10:20:37.396Z,6.67
2018-09-15T10:23:05.521Z,9.60
2018-09-15T10:25:33.684Z,6.40
2018-09-15T10:28:01.806Z,8.10
2018-09-15T10:30:29.980Z,7.60
2018-09-15T10:32:58.115Z,7.77
2018-09-15T10:35:26.241Z,5.40
2018-09-15T10:37:54.445Z,9.03
2018-09-15T10:40:22.631Z,9.10
2018-09-15T10:42:50.943Z,6.20
2018-09-15T10:45:19.437Z,5.77
2018-09-15T10:47:47.678Z,6.10
2018-09-15T10:50:15.987Z,5.50
2018-09-15T10:52:44.131Z,6.57
2018-09-15T10:55:12.270Z,7.57
2018-09-15T10:57:40.388Z,5.97
2018-09-15T11:00:08.572Z,6.63
2018-09-15T11:02:36.706Z,7.63
2018-09-15T11:05:04.867Z,5.27
2018-09-15T11:07:33.008Z,6.83
2018-09-15T11:10:01.143Z,9.67
2018-09-15T11:12:29.262Z,6.83
2018-09-15T11:14:57.403Z,4.47
2018-09-15T11:17:25.523Z,6.20
2018-09-15T11:19:53.663Z,5.33
2018-09-15T11:22:21.869Z,5.67
2018-09-15T11:24:50.001Z,8.90
2018-09-15T11:27:18.131Z,7.17
2018-09-15T11:29:46.307Z,5.37
2018-09-15T11:32:14.428Z,5.73
2018-09-15T11:34:42.578Z,5.20
2018-09-15T11:37:10.730Z,6.47
2018-09-15T11:39:39.580Z,6.17
2018-09-15T11:42:08.250Z,3.80
2018-09-15T11:44:36.663Z,6.93
2018-09-15T11:47:04.919Z,6.30
2018-09-15T11:49:33.137Z,3.87
2018-09-15T11:52:01.294Z,5.53
2018-09-15T11:54:29.425Z,5.37
2018-09-15T11:56:57.726Z,6.37
2018-09-15T11:59:25.886Z,5.53
2018-09-15T12:01:54.144Z,4.30
2018-09-15T12:04:22.275Z,5.80
2018-09-15T12:06:50.381Z,4.63
2018-09-15T12:09:18.564Z,6.70
2018-09-15T12:11:46.713Z,4.73
2018-09-15T12:14:14.901Z,5.57
2018-09-15T12:16:43.020Z,6.93
2018-09-15T12:19:11.173Z,6.87
2018-09-15T12:21:39.502Z,5.50
2018-09-15T12:24:07.625Z,7.27
2018-09-15T12:26:35.769Z,6.50
2018-09-15T12:29:03.926Z,4.30
2018-09-15T12:31:32.151Z,6.20
2018-09-15T12:34:00.279Z,6.63
2018-09-15T12:36:28.644Z,5.87
2018-09-15T12:38:56.782Z,5.43
2018-09-15T12:41:24.992Z,5.00
2018-09-15T12:43:53.116Z,6.10
2018-09-15T12:46:21.237Z,6.77
2018-09-15T12:48:49.402Z,4.97
2018-09-15T12:51:17.508Z,6.50
2018-09-15T12:53:45.687Z,4.50
2018-09-15T12:56:13.822Z,7.17
2018-09-15T12:58:41.950Z,4.53
2018-09-15T13:01:10.335Z,4.50
2018-09-15T13:03:38.523Z,4.70
2018-09-15T13:06:06.976Z,3.47
2018-09-15T13:08:35.119Z,3.73
2018-09-15T13:11:03.279Z,2.63
2018-09-15T13:13:31.460Z,3.27
2018-09-15T13:15:59.767Z,3.70
2018-09-15T13:18:28.007Z,3.37
2018-09-15T13:20:56.124Z,4.67
2018-09-15T13:23:24.271Z,5.20
2018-09-15T13:25:52.407Z,5.33
2018-09-15T13:28:20.584Z,5.23
2018-09-15T13:30:48.756Z,3.93
2018-09-15T13:33:16.907Z,4.63
2018-09-15T13:35:45.024Z,3.17
2018-09-15T13:38:13.207Z,7.67
2018-09-15T13:40:41.330Z,3.93
2018-09-15T13:43:09.464Z,4.70
2018-09-15T13:45:37.599Z,4.37
2018-09-15T13:48:05.992Z,4.30
2018-09-15T13:50:34.158Z,4.30
2018-09-15T13:53:02.307Z,3.87
2018-09-15T13:55:32.448Z,5.33
2018-09-15T13:58:00.579Z,4.93
2018-09-15T14:00:28.702Z,4.90
2018-09-15T14:02:56.888Z,4.70
2018-09-15T14:05:25.008Z,3.60
2018-09-15T14:07:53.527Z,5.13
2018-09-15T14:10:21.724Z,3.40
2018-09-15T14:12:50.251Z,4.90
2018-09-15T14:15:18.448Z,5.80
2018-09-15T14:17:46.584Z,6.43
2018-09-15T14:20:14.702Z,3.43
2018-09-15T14:22:43.602Z,6.63
2018-09-15T14:25:11.804Z,4.23
2018-09-15T14:27:40.008Z,3.00
2018-09-15T14:30:08.159Z,5.20
2018-09-15T14:32:36.306Z,4.20
2018-09-15T14:35:04.460Z,3.50
2018-09-15T14:37:32.596Z,3.03
2018-09-15T14:40:00.711Z,2.80
2018-09-15T14:42:28.862Z,3.53
2018-09-15T14:44:56.999Z,3.03
2018-09-15T14:47:25.159Z,4.50
2018-09-15T14:49:53.290Z,3.50
2018-09-15T14:52:21.436Z,3.60
2018-09-15T14:54:49.615Z,4.00
2018-09-15T14:57:17.751Z,5.20
2018-09-15T14:59:45.886Z,3.67
2018-09-15T15:02:14.048Z,3.67
2018-09-15T15:04:42.185Z,4.07
2018-09-15T15:07:10.327Z,4.30
2018-09-15T15:09:38.458Z,3.53
2018-09-15T15:12:06.598Z,4.70
2018-09-15T15:14:34.762Z,5.93
2018-09-15T15:17:02.902Z,2.87
2018-09-15T15:19:31.042Z,6.87
2018-09-15T15:21:59.186Z,4.17
2018-09-15T15:24:27.342Z,3.63
2018-09-15T15:26:55.468Z,5.17
2018-09-15T15:29:23.616Z,3.63
2018-09-15T15:31:51.782Z,4.77
2018-09-15T15:34:19.969Z,3.43
2018-09-15T15:36:48.107Z,4.27
2018-09-15T15:39:16.256Z,3.57
2018-09-15T15:41:44.385Z,3.33
2018-09-15T15:44:13.129Z,5.40
2018-09-15T15:46:41.270Z,4.07
2018-09-15T15:49:09.418Z,4.37
2018-09-15T15:51:37.582Z,4.33
2018-09-15T15:54:05.697Z,4.20
2018-09-15T15:56:33.820Z,5.67
2018-09-15T15:59:01.993Z,5.30
2018-09-15T16:01:30.122Z,3.43
2018-09-15T16:03:58.235Z,2.47
2018-09-15T16:06:26.359Z,4.60
2018-09-15T16:08:54.503Z,4.27
2018-09-15T16:11:22.634Z,4.83
2018-09-15T16:13:51.260Z,3.60
2018-09-15T16:16:19.455Z,5.70
2018-09-15T16:18:47.605Z,3.40
2018-09-15T16:21:15.720Z,5.50
2018-09-15T16:23:43.853Z,5.70
2018-09-15T16:26:11.979Z,5.60
2018-09-15T16:28:40.191Z,5.17
2018-09-15T16:31:08.327Z,4.67
2018-09-15T16:33:36.462Z,3.10
2018-09-15T16:36:05.643Z,5.10
2018-09-15T16:38:33.796Z,5.13
2018-09-15T16:41:01.923Z,6.20
2018-09-15T16:43:30.066Z,5.73
2018-09-15T16:45:58.190Z,4.50
2018-09-15T16:48:26.339Z,5.00
2018-09-15T16:50:54.455Z,5.87
2018-09-15T16:53:22.589Z,3.40
2018-09-15T16:55:50.728Z,4.80
2018-09-15T16:58:19.460Z,2.73
2018-09-15T17:00:47.655Z,5.53
2018-09-15T17:03:16.560Z,3.00
2018-09-15T17:05:45.191Z,4.57
2018-09-15T17:08:13.324Z,4.07
2018-09-15T17:10:41.880Z,3.20
2018-09-15T17:13:09.994Z,4.13
2018-09-15T17:15:38.142Z,4.47
2018-09-15T17:18:06.324Z,5.67
2018-09-15T17:20:34.458Z,3.50
2018-09-15T17:23:02.587Z,3.93
2018-09-15T17:25:30.843Z,4.03
2018-09-15T17:27:58.970Z,3.47
2018-09-15T17:30:27.131Z,2.80
2018-09-15T17:32:55.254Z,3.40
2018-09-15T17:35:23.395Z,5.00
2018-09-15T17:37:51.518Z,2.80
2018-09-15T17:40:19.670Z,3.60
2018-09-15T17:42:47.798Z,5.07
2018-09-15T17:45:15.999Z,5.63
2018-09-15T17:47:44.079Z,5.60
2018-09-15T17:50:12.217Z,3.97
2018-09-15T17:52:40.347Z,4.57
2018-09-15T17:55:08.485Z,5.30
2018-09-15T17:57:36.636Z,5.27
2018-09-15T18:00:05.117Z,4.73
2018-09-15T18:02:33.260Z,2.80
2018-09-15T18:05:01.410Z,2.63
2018-09-15T18:07:29.539Z,5.13
2018-09-15T18:09:57.748Z,4.27
2018-09-15T18:12:25.828Z,6.40
2018-09-15T18:14:53.998Z,4.93
2018-09-15T18:17:22.128Z,6.03
2018-09-15T18:19:50.248Z,7.13
2018-09-15T18:22:18.401Z,4.53
2018-09-15T18:24:46.544Z,3.67
2018-09-15T18:27:14.702Z,2.97
2018-09-15T18:29:42.850Z,2.50
2018-09-15T18:32:11.039Z,3.87
2018-09-15T18:34:39.182Z,4.83
2018-09-15T18:37:07.322Z,4.17
2018-09-15T18:39:35.459Z,5.90
2018-09-15T18:42:03.600Z,3.83
2018-09-15T18:44:31.735Z,6.20
2018-09-15T18:46:59.856Z,4.27
2018-09-15T18:49:28.003Z,4.37
2018-09-15T18:51:56.119Z,4.83
2018-09-15T18:54:24.253Z,3.97
2018-09-15T18:56:52.378Z,5.43
2018-09-15T18:59:20.513Z,4.10
2018-09-15T19:01:48.630Z,3.37
2018-09-15T19:04:16.748Z,7.00
2018-09-15T19:06:44.892Z,4.07
2018-09-15T19:09:13.060Z,7.87
2018-09-15T19:11:41.493Z,3.80
2018-09-15T19:14:09.869Z,3.60
2018-09-15T19:16:38.058Z,4.33
2018-09-15T19:19:06.295Z,4.73
2018-09-15T19:21:34.426Z,6.90
2018-09-15T19:24:02.623Z,5.73
2018-09-15T19:26:30.837Z,5.73
2018-09-15T19:28:58.892Z,6.60
2018-09-15T19:31:27.038Z,8.37
2018-09-15T19:33:55.239Z,9.00
2018-09-15T19:36:23.379Z,6.93
2018-09-15T19:38:51.507Z,6.10
2018-09-15T19:41:19.659Z,6.63
2018-09-15T19:43:47.838Z,7.57
2018-09-15T19:46:16.003Z,9.77
2018-09-15T19:48:44.131Z,7.90
2018-09-15T19:51:12.250Z,7.03
2018-09-15T19:53:40.375Z,5.97
2018-09-15T19:56:08.511Z,8.23
2018-09-15T19:58:36.631Z,5.50
2018-09-15T20:01:04.771Z,4.57
2018-09-15T20:03:32.879Z,5.03
2018-09-15T20:06:01.109Z,6.53
2018-09-15T20:08:29.161Z,5.43
2018-09-15T20:10:57.306Z,8.47
2018-09-15T20:13:25.456Z,5.27
2018-09-15T20:15:52.649Z,5.37
2018-09-15T20:18:19.827Z,6.70
2018-09-15T20:20:47.024Z,6.13
2018-09-15T20:23:15.187Z,6.27
2018-09-15T20:25:43.330Z,5.00
2018-09-15T20:28:11.473Z,4.33
2018-09-15T20:30:39.622Z,6.17
2018-09-15T20:33:07.846Z,6.07
2018-09-15T20:35:35.898Z,8.13
2018-09-15T20:38:04.035Z,6.73
2018-09-15T20:40:32.258Z,5.53
2018-09-15T20:43:00.328Z,5.23
2018-09-15T20:45:28.457Z,6.03
2018-09-15T20:47:56.661Z,7.07
2018-09-15T20:50:24.820Z,4.87
2018-09-15T20:52:52.948Z,5.27
2018-09-15T20:55:21.067Z,5.87
2018-09-15T20:57:49.192Z,5.70
2018-09-15T21:00:17.325Z,4.47
2018-09-15T21:02:45.467Z,6.87
2018-09-15T21:05:13.596Z,7.27
2018-09-15T21:07:41.745Z,5.97
2018-09-15T21:10:09.888Z,5.97
2018-09-15T21:12:38.021Z,4.60
2018-09-15T21:15:06.194Z,5.37
2018-09-15T21:17:34.323Z,4.17
2018-09-15T21:20:02.466Z,3.77
2018-09-15T21:22:30.631Z,5.40
2018-09-15T21:24:58.767Z,6.43
2018-09-15T21:27:26.911Z,6.27
2018-09-15T21:29:55.054Z,5.90
2018-09-15T21:32:23.190Z,3.80
2018-09-15T21:34:51.315Z,4.50
2018-09-15T21:37:19.543Z,5.50
2018-09-15T21:39:47.670Z,6.20
2018-09-15T21:42:15.820Z,4.83
2018-09-15T21:44:43.964Z,6.30
2018-09-15T21:47:12.112Z,4.90
2018-09-15T21:49:40.252Z,10.10
2018-09-15T21:52:08.388Z,4.70
2018-09-15T21:54:36.522Z,4.77
2018-09-15T21:57:04.651Z,5.43
2018-09-15T21:59:32.795Z,9.10
2018-09-15T22:02:00.930Z,9.47
2018-09-15T22:04:29.052Z,10.40
2018-09-15T22:06:57.237Z,8.00
2018-09-15T22:09:25.420Z,6.07
2018-09-15T22:11:53.515Z,6.70
2018-09-15T22:14:21.647Z,5.33
2018-09-15T22:16:49.771Z,5.73
2018-09-15T22:19:17.920Z,6.07
2018-09-15T22:21:46.062Z,7.63
2018-09-15T22:24:14.192Z,7.67
2018-09-15T22:26:42.332Z,5.17
2018-09-15T22:29:10.510Z,5.60
2018-09-15T22:31:38.651Z,7.87
2018-09-15T22:34:06.864Z,7.43
2018-09-15T22:36:34.926Z,8.07
2018-09-15T22:39:03.396Z,5.17
2018-09-15T22:41:31.510Z,5.43
2018-09-15T22:43:59.646Z,6.00
2018-09-15T22:46:27.771Z,7.20
2018-09-15T22:48:55.906Z,7.07
2018-09-15T22:51:24.063Z,6.90
2018-09-15T22:53:52.211Z,7.03
2018-09-15T22:56:20.347Z,7.33
2018-09-15T22:58:48.474Z,6.60
2018-09-15T23:01:16.602Z,6.63
2018-09-15T23:03:44.738Z,4.70
2018-09-15T23:06:12.863Z,8.20
2018-09-15T23:08:40.998Z,7.07
2018-09-15T23:11:09.175Z,5.33
2018-09-15T23:13:37.418Z,4.80
2018-09-15T23:16:05.570Z,7.03
2018-09-15T23:18:33.711Z,7.37
2018-09-15T23:21:01.844Z,7.43
2018-09-15T23:23:29.987Z,6.70
2018-09-15T23:25:58.129Z,4.73
2018-09-15T23:28:26.267Z,6.13
2018-09-15T23:30:54.403Z,7.07
2018-09-15T23:33:22.532Z,6.47
2018-09-15T23:35:50.668Z,6.70
2018-09-15T23:38:18.806Z,4.37
2018-09-15T23:40:46.936Z,6.83
2018-09-15T23:43:15.059Z,6.17
2018-09-15T23:45:43.198Z,5.53
2018-09-15T23:48:11.400Z,6.17
2018-09-15T23:50:39.534Z,4.83
2018-09-15T23:53:07.683Z,4.60
2018-09-15T23:55:35.807Z,5.83
2018-09-15T23:58:03.922Z,5.13
